createdAt,value
2023-03-11T00:00:01.879Z,986.37
2023-03-11T00:01:01.836Z,986.46
2023-03-11T00:02:01.817Z,986.45
2023-03-11T00:03:01.763Z,986.45
2023-03-11T00:04:01.787Z,986.44
2023-03-11T00:05:01.751Z,986.48
2023-03-11T00:06:01.652Z,986.50
2023-03-11T00:07:01.647Z,986.61
2023-03-11T00:08:01.572Z,986.58
2023-03-11T00:09:01.526Z,986.60
2023-03-11T00:10:01.903Z,986.57
2023-03-11T00:11:01.468Z,986.64
2023-03-11T00:12:01.411Z,986.65
2023-03-11T00:13:01.405Z,986.61
2023-03-11T00:14:01.328Z,986.68
2023-03-11T00:15:01.310Z,986.67
2023-03-11T00:16:01.343Z,986.75
2023-03-11T00:17:01.224Z,986.77
2023-03-11T00:18:01.245Z,986.80
2023-03-11T00:19:01.154Z,986.80
2023-03-11T00:20:01.100Z,986.85
2023-03-11T00:21:01.103Z,986.91
2023-03-11T00:22:01.086Z,986.97
2023-03-11T00:23:01.007Z,986.95
2023-03-11T00:24:00.983Z,986.91
2023-03-11T00:25:00.913Z,987.03
2023-03-11T00:26:00.877Z,987.00
2023-03-11T00:27:00.835Z,987.03
2023-03-11T00:28:00.856Z,987.03
2023-03-11T00:29:00.761Z,987.09
2023-03-11T00:30:00.730Z,987.09
2023-03-11T00:31:00.715Z,987.13
2023-03-11T00:32:00.644Z,987.10
2023-03-11T00:33:00.712Z,987.14
2023-03-11T00:34:00.625Z,987.14
2023-03-11T00:35:00.533Z,987.16
2023-03-11T00:36:00.529Z,987.23
2023-03-11T00:37:00.451Z,987.26
2023-03-11T00:38:00.407Z,987.19
2023-03-11T00:39:00.458Z,987.25
2023-03-11T00:40:00.412Z,987.30
2023-03-11T00:41:00.288Z,987.34
2023-03-11T00:42:00.247Z,987.32
2023-03-11T00:43:00.257Z,987.40
2023-03-11T00:44:00.164Z,987.44
2023-03-11T00:45:00.135Z,987.45
2023-03-11T00:46:00.182Z,987.45
2023-03-11T00:47:00.093Z,987.51
2023-03-11T00:48:00.016Z,987.53
2023-03-11T00:48:59.988Z,987.63
2023-03-11T00:49:59.938Z,987.68
2023-03-11T00:50:59.900Z,987.69
2023-03-11T00:51:59.908Z,987.75
2023-03-11T00:52:59.853Z,987.67
2023-03-11T00:53:59.776Z,987.71
2023-03-11T00:54:59.742Z,987.85
2023-03-11T00:55:59.708Z,987.78
2023-03-11T00:56:59.684Z,987.82
2023-03-11T00:57:59.680Z,987.92
2023-03-11T00:58:59.594Z,987.86
2023-03-11T00:59:59.568Z,987.98
2023-03-11T01:00:59.546Z,987.95
2023-03-11T01:01:59.479Z,987.95
2023-03-11T01:02:59.423Z,987.99
2023-03-11T01:03:59.457Z,988.09
2023-03-11T01:04:59.363Z,988.05
2023-03-11T01:05:59.325Z,988.10
2023-03-11T01:06:59.284Z,988.15
2023-03-11T01:07:59.274Z,988.13
2023-03-11T01:08:59.197Z,988.15
2023-03-11T01:09:59.213Z,988.23
2023-03-11T01:10:59.143Z,988.24
2023-03-11T01:11:59.079Z,988.27
2023-03-11T01:12:59.075Z,988.32
2023-03-11T01:13:59.002Z,988.38
2023-03-11T01:14:58.982Z,988.48
2023-03-11T01:15:59.009Z,988.43
2023-03-11T01:16:58.904Z,988.52
2023-03-11T01:17:58.846Z,988.53
2023-03-11T01:18:58.812Z,988.63
2023-03-11T01:19:58.779Z,988.62
2023-03-11T01:20:58.804Z,988.68
2023-03-11T01:21:58.758Z,988.70
2023-03-11T01:22:58.662Z,988.74
2023-03-11T01:23:58.609Z,988.70
2023-03-11T01:24:58.581Z,988.76
2023-03-11T01:25:58.540Z,988.88
2023-03-11T01:26:58.581Z,988.91
2023-03-11T01:27:58.463Z,988.96
2023-03-11T01:28:58.423Z,989.03
2023-03-11T01:30:05.111Z,989.11
2023-03-11T01:30:58.371Z,989.09
2023-03-11T01:31:58.303Z,989.10
2023-03-11T01:32:58.342Z,989.19
2023-03-11T01:33:58.236Z,989.31
2023-03-11T01:34:58.212Z,989.30
2023-03-11T01:35:58.254Z,989.28
2023-03-11T01:36:58.097Z,989.27
2023-03-11T01:37:58.075Z,989.20
2023-03-11T01:38:58.038Z,989.32
2023-03-11T01:39:57.984Z,989.35
2023-03-11T01:40:58.290Z,989.42
2023-03-11T01:41:57.938Z,989.44
2023-03-11T01:42:57.884Z,989.44
2023-03-11T01:43:57.821Z,989.60
2023-03-11T01:44:57.796Z,989.53
2023-03-11T01:45:57.882Z,989.54
2023-03-11T01:46:57.748Z,989.72
2023-03-11T01:47:57.677Z,989.80
2023-03-11T01:48:57.688Z,989.65
2023-03-11T01:49:57.604Z,989.69
2023-03-11T01:50:57.589Z,989.74
2023-03-11T01:51:57.623Z,989.89
2023-03-11T01:52:57.476Z,989.82
2023-03-11T01:53:57.467Z,989.82
2023-03-11T01:54:57.401Z,989.95
2023-03-11T01:55:57.390Z,989.87
2023-03-11T01:56:57.337Z,989.97
2023-03-11T01:57:57.354Z,990.20
2023-03-11T01:58:57.324Z,990.11
2023-03-11T01:59:57.254Z,990.15
2023-03-11T02:00:57.257Z,990.23
2023-03-11T02:01:57.228Z,990.24
2023-03-11T02:02:57.359Z,990.30
2023-03-11T02:03:57.110Z,990.27
2023-03-11T02:04:57.096Z,990.30
2023-03-11T02:05:57.067Z,990.36
2023-03-11T02:06:56.945Z,990.37
2023-03-11T02:07:56.960Z,990.46
2023-03-11T02:08:56.999Z,990.58
2023-03-11T02:09:56.825Z,990.54
2023-03-11T02:10:56.784Z,990.59
2023-03-11T02:11:56.757Z,990.53
2023-03-11T02:12:56.726Z,990.66
2023-03-11T02:13:56.666Z,990.71
2023-03-11T02:14:56.715Z,990.85
2023-03-11T02:15:56.606Z,990.73
2023-03-11T02:16:56.540Z,990.77
2023-03-11T02:17:56.533Z,990.86
2023-03-11T02:18:56.459Z,991.05
2023-03-11T02:19:56.437Z,991.13
2023-03-11T02:20:56.450Z,991.03
2023-03-11T02:21:56.364Z,991.00
2023-03-11T02:22:56.310Z,990.97
2023-03-11T02:23:56.283Z,990.96
2023-03-11T02:24:56.245Z,991.06
2023-03-11T02:25:56.293Z,991.22
2023-03-11T02:26:56.313Z,991.16
2023-03-11T02:27:56.118Z,991.21
2023-03-11T02:28:56.070Z,991.19
2023-03-11T02:29:56.058Z,991.22
2023-03-11T02:30:56.093Z,991.30
2023-03-11T02:31:56.073Z,991.29
2023-03-11T02:32:55.925Z,991.51
2023-03-11T02:33:55.909Z,991.33
2023-03-11T02:34:55.837Z,991.47
2023-03-11T02:35:55.931Z,991.48
2023-03-11T02:36:55.761Z,991.54
2023-03-11T02:37:55.733Z,991.56
2023-03-11T02:38:55.683Z,991.53
2023-03-11T02:39:55.684Z,991.58
2023-03-11T02:40:55.705Z,991.61
2023-03-11T02:41:55.575Z,991.66
2023-03-11T02:42:55.534Z,991.67
2023-03-11T02:43:55.505Z,991.73
2023-03-11T02:44:55.452Z,992.03
2023-03-11T02:45:55.488Z,991.86
2023-03-11T02:46:55.418Z,991.84
2023-03-11T02:47:55.337Z,991.94
2023-03-11T02:48:55.301Z,991.99
2023-03-11T02:49:55.255Z,992.02
2023-03-11T02:50:55.290Z,992.10
2023-03-11T02:51:55.209Z,992.27
2023-03-11T02:52:55.153Z,992.15
2023-03-11T02:53:55.110Z,992.16
2023-03-11T02:54:55.070Z,992.20
2023-03-11T02:55:55.034Z,992.25
2023-03-11T02:56:55.043Z,992.22
2023-03-11T02:57:54.953Z,992.32
2023-03-11T02:58:54.905Z,992.44
2023-03-11T02:59:54.861Z,992.39
2023-03-11T03:00:54.849Z,992.50
2023-03-11T03:01:54.801Z,992.57
2023-03-11T03:02:54.809Z,992.41
2023-03-11T03:03:54.762Z,992.62
2023-03-11T03:04:54.654Z,992.57
2023-03-11T03:05:54.639Z,992.53
2023-03-11T03:06:54.576Z,992.54
2023-03-11T03:07:54.580Z,992.62
2023-03-11T03:08:54.629Z,992.75
2023-03-11T03:09:54.498Z,992.73
2023-03-11T03:10:54.423Z,992.92
2023-03-11T03:11:54.419Z,992.77
2023-03-11T03:12:54.345Z,992.87
2023-03-11T03:13:54.309Z,992.96
2023-03-11T03:14:54.376Z,992.87
2023-03-11T03:15:54.226Z,992.89
2023-03-11T03:16:54.306Z,992.96
2023-03-11T03:17:54.196Z,993.03
2023-03-11T03:18:54.121Z,993.02
2023-03-11T03:19:54.101Z,993.09
2023-03-11T03:20:54.116Z,993.23
2023-03-11T03:21:54.026Z,993.09
2023-03-11T03:22:53.998Z,993.16
2023-03-11T03:23:54.069Z,993.18
2023-03-11T03:24:53.892Z,993.21
2023-03-11T03:25:53.855Z,993.23
2023-03-11T03:26:53.876Z,993.35
2023-03-11T03:27:53.799Z,993.30
2023-03-11T03:28:53.718Z,993.34
2023-03-11T03:29:53.714Z,993.43
2023-03-11T03:30:53.650Z,993.31
2023-03-11T03:31:53.809Z,993.45
2023-03-11T03:32:53.623Z,993.61
2023-03-11T03:33:53.529Z,993.46
2023-03-11T03:34:53.500Z,993.54
2023-03-11T03:35:53.525Z,993.59
2023-03-11T03:36:53.427Z,993.56
2023-03-11T03:37:53.443Z,993.62
2023-03-11T03:38:53.334Z,993.63
2023-03-11T03:39:53.298Z,993.70
2023-03-11T03:40:53.256Z,993.69
2023-03-11T03:41:53.217Z,993.80
2023-03-11T03:42:53.189Z,993.81
2023-03-11T03:43:53.212Z,993.76
2023-03-11T03:44:53.103Z,993.86
2023-03-11T03:45:53.081Z,993.90
2023-03-11T03:46:53.023Z,993.90
2023-03-11T03:47:53.004Z,993.97
2023-03-11T03:48:52.951Z,994.06
2023-03-11T03:49:52.966Z,993.96
2023-03-11T03:50:52.869Z,994.09
2023-03-11T03:51:52.836Z,994.10
2023-03-11T03:52:52.789Z,994.19
2023-03-11T03:53:52.754Z,994.15
2023-03-11T03:54:52.704Z,994.24
2023-03-11T03:55:52.727Z,994.32
2023-03-11T03:56:52.647Z,994.32
2023-03-11T03:57:52.596Z,994.35
2023-03-11T03:58:52.553Z,994.38
2023-03-11T03:59:52.517Z,994.47
2023-03-11T04:00:52.477Z,994.41
2023-03-11T04:01:52.545Z,994.41
2023-03-11T04:02:52.399Z,994.48
2023-03-11T04:03:52.372Z,994.47
2023-03-11T04:04:52.332Z,994.52
2023-03-11T04:05:52.291Z,994.47
2023-03-11T04:06:52.247Z,994.53
2023-03-11T04:07:52.277Z,994.63
2023-03-11T04:08:52.177Z,994.64
2023-03-11T04:09:52.121Z,994.69
2023-03-11T04:10:52.094Z,994.62
2023-03-11T04:11:52.052Z,994.65
2023-03-11T04:12:52.011Z,994.64
2023-03-11T04:13:52.093Z,994.66
2023-03-11T04:14:51.935Z,994.67
2023-03-11T04:15:51.918Z,994.72
2023-03-11T04:16:51.899Z,994.73
2023-03-11T04:17:51.837Z,994.75
2023-03-11T04:18:51.784Z,994.88
2023-03-11T04:19:51.797Z,994.86
2023-03-11T04:20:51.747Z,994.94
2023-03-11T04:21:51.665Z,994.95
2023-03-11T04:22:51.627Z,994.92
2023-03-11T04:23:51.590Z,994.95
2023-03-11T04:24:51.555Z,995.03
2023-03-11T04:25:51.563Z,995.10
2023-03-11T04:26:51.466Z,995.10
2023-03-11T04:27:51.432Z,995.11
2023-03-11T04:28:51.395Z,995.08
2023-03-11T04:29:51.372Z,995.11
2023-03-11T04:30:51.394Z,995.28
2023-03-11T04:31:51.266Z,995.17
2023-03-11T04:32:51.305Z,995.30
2023-03-11T04:33:51.220Z,995.22
2023-03-11T04:34:51.151Z,995.26
2023-03-11T04:35:51.222Z,995.36
2023-03-11T04:36:51.073Z,995.33
2023-03-11T04:37:51.034Z,995.34
2023-03-11T04:38:50.996Z,995.38
2023-03-11T04:39:50.958Z,995.34
2023-03-11T04:40:50.916Z,995.42
2023-03-11T04:41:50.938Z,995.47
2023-03-11T04:42:50.852Z,995.51
2023-03-11T04:43:50.808Z,995.49
2023-03-11T04:44:50.768Z,995.67
2023-03-11T04:45:50.768Z,995.61
2023-03-11T04:46:50.688Z,995.64
2023-03-11T04:47:50.713Z,995.75
2023-03-11T04:48:50.607Z,995.66
2023-03-11T04:49:50.564Z,995.72
2023-03-11T04:50:50.533Z,995.80
2023-03-11T04:51:50.503Z,995.76
2023-03-11T04:52:50.462Z,995.78
2023-03-11T04:53:50.471Z,995.80
2023-03-11T04:54:50.374Z,995.85
2023-03-11T04:55:50.386Z,995.84
2023-03-11T04:56:50.299Z,995.85
2023-03-11T04:57:50.264Z,995.88
2023-03-11T04:58:50.210Z,995.88
2023-03-11T04:59:50.199Z,995.99
2023-03-11T05:00:50.204Z,996.01
2023-03-11T05:01:50.121Z,996.01
2023-03-11T05:02:50.053Z,996.05
2023-03-11T05:03:50.024Z,996.10
2023-03-11T05:04:50.015Z,996.15
2023-03-11T05:05:50.008Z,996.09
2023-03-11T05:06:49.905Z,996.13
2023-03-11T05:07:49.873Z,996.30
2023-03-11T05:08:49.822Z,996.24
2023-03-11T05:09:49.794Z,996.22
2023-03-11T05:10:49.743Z,996.32
2023-03-11T05:11:49.766Z,996.28
2023-03-11T05:12:49.664Z,996.32
2023-03-11T05:13:49.627Z,996.36
2023-03-11T05:14:49.593Z,996.32
2023-03-11T05:15:49.580Z,996.49
2023-03-11T05:16:49.566Z,996.43
2023-03-11T05:17:49.598Z,996.47
2023-03-11T05:18:49.450Z,996.52
2023-03-11T05:19:49.396Z,996.51
2023-03-11T05:20:49.367Z,996.53
2023-03-11T05:21:49.381Z,996.57
2023-03-11T05:22:49.284Z,996.67
2023-03-11T05:23:49.249Z,996.67
2023-03-11T05:24:49.200Z,996.65
2023-03-11T05:25:49.162Z,996.73
2023-03-11T05:26:49.181Z,996.63
2023-03-11T05:27:49.084Z,996.64
2023-03-11T05:28:49.052Z,996.73
2023-03-11T05:29:49.024Z,996.69
2023-03-11T05:30:48.999Z,996.77
2023-03-11T05:31:48.958Z,996.80
2023-03-11T05:32:49.013Z,996.82
2023-03-11T05:33:48.864Z,996.79
2023-03-11T05:34:48.824Z,996.77
2023-03-11T05:35:48.810Z,996.87
2023-03-11T05:36:48.739Z,996.87
2023-03-11T05:37:48.703Z,996.88
2023-03-11T05:38:48.724Z,997.05
2023-03-11T05:39:48.628Z,996.89
2023-03-11T05:40:48.594Z,996.92
2023-03-11T05:41:48.558Z,996.97
2023-03-11T05:42:48.522Z,997.03
2023-03-11T05:43:48.481Z,996.98
2023-03-11T05:44:48.484Z,997.16
2023-03-11T05:45:48.389Z,997.13
2023-03-11T05:46:48.394Z,997.07
2023-03-11T05:47:48.336Z,997.16
2023-03-11T05:48:48.295Z,997.15
2023-03-11T05:49:48.259Z,997.15
2023-03-11T05:50:48.293Z,997.23
2023-03-11T05:51:48.214Z,997.22
2023-03-11T05:52:48.133Z,997.18
2023-03-11T05:53:48.095Z,997.32
2023-03-11T05:54:48.052Z,997.25
2023-03-11T05:55:48.071Z,997.25
2023-03-11T05:56:47.963Z,997.32
2023-03-11T05:57:47.928Z,997.37
2023-03-11T05:58:47.894Z,997.33
2023-03-11T05:59:47.847Z,997.40
2023-03-11T06:00:47.809Z,997.34
2023-03-11T06:01:47.831Z,997.51
2023-03-11T06:02:47.740Z,997.48
2023-03-11T06:03:47.762Z,997.49
2023-03-11T06:04:47.757Z,997.57
2023-03-11T06:05:47.639Z,997.54
2023-03-11T06:06:47.587Z,997.61
2023-03-11T06:07:47.588Z,997.57
2023-03-11T06:08:47.508Z,997.59
2023-03-11T06:09:47.457Z,997.63
2023-03-11T06:10:48.986Z,997.65
2023-03-11T06:11:47.388Z,997.66
2023-03-11T06:12:47.392Z,997.72
2023-03-11T06:13:47.315Z,997.72
2023-03-11T06:14:47.369Z,997.80
2023-03-11T06:15:47.225Z,997.75
2023-03-11T06:16:47.184Z,997.80
2023-03-11T06:17:47.223Z,997.94
2023-03-11T06:18:47.104Z,997.77
2023-03-11T06:19:47.067Z,997.80
2023-03-11T06:20:47.050Z,997.99
2023-03-11T06:21:46.994Z,997.87
2023-03-11T06:22:47.007Z,997.86
2023-03-11T06:23:46.920Z,997.86
2023-03-11T06:24:46.893Z,997.93
2023-03-11T06:25:46.829Z,997.92
2023-03-11T06:26:46.800Z,997.97
2023-03-11T06:27:46.819Z,997.96
2023-03-11T06:28:46.717Z,998.02
2023-03-11T06:29:48.634Z,998.03
2023-03-11T06:30:46.642Z,998.06
2023-03-11T06:31:46.652Z,998.12
2023-03-11T06:32:46.654Z,998.15
2023-03-11T06:33:46.528Z,998.22
2023-03-11T06:34:46.488Z,998.19
2023-03-11T06:35:46.485Z,998.25
2023-03-11T06:36:46.410Z,998.34
2023-03-11T06:37:46.426Z,998.41
2023-03-11T06:38:55.802Z,998.40
2023-03-11T06:39:46.294Z,998.40
2023-03-11T06:40:46.250Z,998.43
2023-03-11T06:41:55.844Z,998.45
2023-03-11T06:42:46.249Z,998.47
2023-03-11T06:43:55.355Z,998.57
2023-03-11T06:44:55.392Z,998.56
2023-03-11T06:45:55.453Z,998.67
2023-03-11T06:46:46.020Z,998.52
2023-03-11T06:47:55.007Z,998.66
2023-03-11T06:48:45.940Z,998.71
2023-03-11T06:49:46.390Z,998.60
2023-03-11T06:50:48.425Z,998.70
2023-03-11T06:51:45.827Z,998.70
2023-03-11T06:52:55.154Z,998.78
2023-03-11T06:53:45.795Z,998.74
2023-03-11T06:54:45.707Z,998.75
2023-03-11T06:55:45.675Z,998.83
2023-03-11T06:56:45.633Z,998.84
2023-03-11T06:57:45.605Z,998.91
2023-03-11T06:58:45.604Z,998.87
2023-03-11T06:59:45.513Z,998.90
2023-03-11T07:00:45.493Z,998.92
2023-03-11T07:01:45.439Z,999.04
2023-03-11T07:02:45.441Z,998.95
2023-03-11T07:03:45.372Z,998.99
2023-03-11T07:04:45.370Z,998.96
2023-03-11T07:05:45.283Z,999.00
2023-03-11T07:06:45.248Z,998.98
2023-03-11T07:07:45.207Z,999.01
2023-03-11T07:08:45.183Z,999.13
2023-03-11T07:09:45.118Z,999.11
2023-03-11T07:10:45.147Z,999.05
2023-03-11T07:11:45.122Z,999.08
2023-03-11T07:12:45.014Z,999.14
2023-03-11T07:13:44.983Z,999.15
2023-03-11T07:14:44.944Z,999.13
2023-03-11T07:15:44.896Z,999.18
2023-03-11T07:16:44.934Z,999.19
2023-03-11T07:17:44.827Z,999.19
2023-03-11T07:18:44.843Z,999.22
2023-03-11T07:19:44.742Z,999.25
2023-03-11T07:20:44.717Z,999.39
2023-03-11T07:21:44.720Z,999.33
2023-03-11T07:22:44.622Z,999.40
2023-03-11T07:23:44.592Z,999.45
2023-03-11T07:24:44.547Z,999.44
2023-03-11T07:25:44.509Z,999.44
2023-03-11T07:26:44.720Z,999.59
2023-03-11T07:32:38.934Z,999.56
2023-03-11T07:33:20.880Z,999.64
2023-03-11T07:34:20.603Z,999.60
2023-03-11T07:35:20.578Z,999.65
2023-03-11T07:36:20.530Z,999.71
2023-03-11T07:37:20.496Z,999.71
2023-03-11T07:38:21.038Z,999.74
2023-03-11T07:39:20.425Z,999.81
2023-03-11T07:40:20.416Z,999.84
2023-03-11T07:41:20.562Z,999.88
2023-03-11T07:42:20.674Z,999.84
2023-03-11T07:43:20.274Z,999.93
2023-03-11T07:44:20.469Z,999.89
2023-03-11T07:45:20.246Z,999.98
2023-03-11T07:46:20.160Z,999.98
2023-03-11T07:47:20.116Z,1000.02
2023-03-11T07:48:20.070Z,1000.02
2023-03-11T07:49:20.107Z,1000.05
2023-03-11T07:50:20.057Z,1000.04
2023-03-11T07:51:19.973Z,1000.11
2023-03-11T07:52:19.919Z,1000.16
2023-03-11T07:53:19.885Z,1000.24
2023-03-11T07:54:19.844Z,1000.19
2023-03-11T07:55:19.817Z,1000.16
2023-03-11T07:56:19.882Z,1000.21
2023-03-11T07:57:19.761Z,1000.24
2023-03-11T07:58:19.707Z,1000.28
2023-03-11T07:59:19.661Z,1000.26
2023-03-11T08:00:19.648Z,1000.30
2023-03-11T08:01:19.590Z,1000.27
2023-03-11T08:02:19.683Z,1000.34
2023-03-11T08:03:19.535Z,1000.38
2023-03-11T08:04:19.470Z,1000.47
2023-03-11T08:05:19.435Z,1000.39
2023-03-11T08:06:19.390Z,1000.50
2023-03-11T08:07:19.357Z,1000.60
2023-03-11T08:08:19.398Z,1000.41
2023-03-11T08:09:19.287Z,1000.49
2023-03-11T08:10:19.254Z,1000.49
2023-03-11T08:11:19.208Z,1000.44
2023-03-11T08:12:19.169Z,1000.45
2023-03-11T08:13:19.135Z,1000.49
2023-03-11T08:14:19.167Z,1000.55
2023-03-11T08:15:19.058Z,1000.58
2023-03-11T08:16:19.020Z,1000.62
2023-03-11T08:17:19.271Z,1000.67
2023-03-11T08:18:19.007Z,1000.67
2023-03-11T08:19:18.908Z,1000.66
2023-03-11T08:20:18.865Z,1000.71
2023-03-11T08:21:18.829Z,1000.72
2023-03-11T08:22:18.799Z,1000.81
2023-03-11T08:23:18.830Z,1000.76
2023-03-11T08:24:18.719Z,1000.79
2023-03-11T08:25:18.689Z,1000.74
2023-03-11T08:26:18.652Z,1000.81
2023-03-11T08:27:18.607Z,1000.85
2023-03-11T08:28:18.630Z,1000.87
2023-03-11T08:29:18.532Z,1000.92
2023-03-11T08:30:18.522Z,1000.92
2023-03-11T08:31:18.487Z,1001.02
2023-03-11T08:32:18.525Z,1001.02
2023-03-11T08:33:18.485Z,1000.95
2023-03-11T08:34:18.349Z,1000.98
2023-03-11T08:35:18.314Z,1001.07
2023-03-11T08:36:18.270Z,1001.06
2023-03-11T08:37:18.233Z,1001.11
2023-03-11T08:38:18.195Z,1001.14
2023-03-11T08:39:18.242Z,1001.15
2023-03-11T08:40:18.220Z,1001.15
2023-03-11T08:41:18.094Z,1001.15
2023-03-11T08:42:18.051Z,1001.22
2023-03-11T08:43:18.016Z,1001.21
2023-03-11T08:44:17.983Z,1001.29
2023-03-11T08:45:18.479Z,1001.26
2023-03-11T08:46:17.954Z,1001.29
2023-03-11T08:47:17.878Z,1001.25
2023-03-11T08:48:17.832Z,1001.35
2023-03-11T08:49:17.872Z,1001.34
2023-03-11T08:50:17.835Z,1001.40
2023-03-11T08:51:17.744Z,1001.37
2023-03-11T08:52:17.687Z,1001.47
2023-03-11T08:53:17.652Z,1001.42
2023-03-11T08:54:17.610Z,1001.45
2023-03-11T08:55:17.669Z,1001.52
2023-03-11T08:56:17.537Z,1001.47
2023-03-11T08:57:17.504Z,1001.48
2023-03-11T08:58:17.465Z,1001.50
2023-03-11T08:59:17.432Z,1001.55
2023-03-11T09:00:17.674Z,1001.56
2023-03-11T09:01:17.379Z,1001.65
2023-03-11T09:02:17.460Z,1001.66
2023-03-11T09:03:17.288Z,1001.62
2023-03-11T09:04:17.257Z,1001.63
2023-03-11T09:05:17.210Z,1001.68
2023-03-11T09:06:17.327Z,1001.66
2023-03-11T09:07:17.145Z,1001.71
2023-03-11T09:08:17.106Z,1001.75
2023-03-11T09:09:17.063Z,1001.71
2023-03-11T09:10:17.274Z,1001.75
2023-03-11T09:11:17.225Z,1001.74
2023-03-11T09:12:17.021Z,1001.77
2023-03-11T09:13:16.919Z,1001.83
2023-03-11T09:14:16.949Z,1001.77
2023-03-11T09:15:16.852Z,1001.77
2023-03-11T09:16:16.992Z,1001.79
2023-03-11T09:17:16.773Z,1001.87
2023-03-11T09:18:16.799Z,1001.88
2023-03-11T09:19:16.704Z,1001.87
2023-03-11T09:20:16.684Z,1001.91
2023-03-11T09:21:16.640Z,1001.94
2023-03-11T09:22:16.596Z,1001.95
2023-03-11T09:23:16.577Z,1002.00
2023-03-11T09:24:16.910Z,1001.98
2023-03-11T09:25:16.514Z,1002.02
2023-03-11T09:26:16.475Z,1002.07
2023-03-11T09:27:16.415Z,1002.03
2023-03-11T09:28:16.387Z,1002.12
2023-03-11T09:29:16.344Z,1001.98
2023-03-11T09:30:16.364Z,1002.03
2023-03-11T09:31:16.425Z,1002.01
2023-03-11T09:32:16.252Z,1002.00
2023-03-11T09:33:16.205Z,1002.04
2023-03-11T09:34:16.343Z,1002.05
2023-03-11T09:35:16.206Z,1002.04
2023-03-11T09:36:16.107Z,1002.01
2023-03-11T09:37:16.065Z,1002.09
2023-03-11T09:38:16.115Z,1002.08
2023-03-11T09:39:15.981Z,1002.07
2023-03-11T09:40:15.945Z,1002.11
2023-03-11T09:41:15.916Z,1002.20
2023-03-11T09:42:15.899Z,1002.20
2023-03-11T09:43:15.918Z,1002.24
2023-03-11T09:44:15.874Z,1002.19
2023-03-11T09:45:15.798Z,1002.26
2023-03-11T09:46:15.785Z,1002.25
2023-03-11T09:47:15.738Z,1002.27
2023-03-11T09:48:15.661Z,1002.24
2023-03-11T09:49:15.692Z,1002.25
2023-03-11T09:50:15.609Z,1002.29
2023-03-11T09:51:15.588Z,1002.39
2023-03-11T09:52:15.520Z,1002.35
2023-03-11T09:53:15.478Z,1002.33
2023-03-11T09:54:15.517Z,1002.28
2023-03-11T09:55:15.408Z,1002.39
2023-03-11T09:56:15.375Z,1002.35
2023-03-11T09:57:15.338Z,1002.38
2023-03-11T09:58:15.298Z,1002.44
2023-03-11T09:59:15.321Z,1002.52
2023-03-11T10:00:15.232Z,1002.47
2023-03-11T10:01:15.183Z,1002.52
2023-03-11T10:02:15.236Z,1002.56
2023-03-11T10:03:15.139Z,1002.52
2023-03-11T10:04:15.138Z,1002.50
2023-03-11T10:05:15.045Z,1002.47
2023-03-11T10:06:15.001Z,1002.56
2023-03-11T10:07:15.857Z,1002.53
2023-03-11T10:08:14.921Z,1002.61
2023-03-11T10:09:14.977Z,1002.64
2023-03-11T10:10:14.934Z,1002.63
2023-03-11T10:11:14.854Z,1002.64
2023-03-11T10:12:14.789Z,1002.66
2023-03-11T10:13:14.764Z,1002.71
2023-03-11T10:14:14.723Z,1002.75
2023-03-11T10:15:14.737Z,1002.69
2023-03-11T10:16:14.682Z,1002.75
2023-03-11T10:17:14.606Z,1002.70
2023-03-11T10:18:14.582Z,1002.71
2023-03-11T10:19:14.525Z,1002.77
2023-03-11T10:20:14.485Z,1002.79
2023-03-11T10:21:14.528Z,1002.77
2023-03-11T10:22:14.426Z,1002.81
2023-03-11T10:23:14.385Z,1002.77
2023-03-11T10:24:14.332Z,1002.82
2023-03-11T10:25:14.294Z,1002.93
2023-03-11T10:26:14.256Z,1002.89
2023-03-11T10:27:14.283Z,1002.94
2023-03-11T10:28:14.191Z,1002.96
2023-03-11T10:29:14.156Z,1002.89
2023-03-11T10:30:14.108Z,1002.92
2023-03-11T10:31:14.086Z,1002.95
2023-03-11T10:32:14.436Z,1003.01
2023-03-11T10:33:14.080Z,1003.04
2023-03-11T10:34:13.971Z,1003.05
2023-03-11T10:35:13.928Z,1003.00
2023-03-11T10:36:13.953Z,1003.05
2023-03-11T10:37:13.917Z,1003.04
2023-03-11T10:38:13.824Z,1003.06
2023-03-11T10:39:13.894Z,1003.11
2023-03-11T10:40:13.738Z,1003.11
2023-03-11T10:41:13.800Z,1003.09
2023-03-11T10:42:13.671Z,1003.15
2023-03-11T10:43:13.679Z,1003.17
2023-03-11T10:44:13.723Z,1003.23
2023-03-11T10:45:13.719Z,1003.23
2023-03-11T10:46:13.609Z,1003.16
2023-03-11T10:47:13.513Z,1003.17
2023-03-11T10:48:13.477Z,1003.18
2023-03-11T10:49:13.437Z,1003.22
2023-03-11T10:50:13.371Z,1003.21
2023-03-11T10:51:13.392Z,1003.24
2023-03-11T10:52:13.290Z,1003.22
2023-03-11T10:53:13.267Z,1003.37
2023-03-11T10:54:13.225Z,1003.23
2023-03-11T10:55:13.185Z,1003.27
2023-03-11T10:56:15.143Z,1003.27
2023-03-11T10:57:13.171Z,1003.33
2023-03-11T10:58:13.091Z,1003.31
2023-03-11T10:59:13.036Z,1003.37
2023-03-11T11:00:12.998Z,1003.33
2023-03-11T11:01:13.022Z,1003.38
2023-03-11T11:02:12.941Z,1003.35
2023-03-11T11:03:13.028Z,1003.34
2023-03-11T11:04:12.961Z,1003.38
2023-03-11T11:05:13.138Z,1003.42
2023-03-11T11:06:12.790Z,1003.35
2023-03-11T11:07:12.970Z,1003.44
2023-03-11T11:08:12.760Z,1003.42
2023-03-11T11:09:12.868Z,1003.44
2023-03-11T11:10:12.665Z,1003.42
2023-03-11T11:11:12.669Z,1003.48
2023-03-11T11:12:12.586Z,1003.46
2023-03-11T11:13:12.761Z,1003.41
2023-03-11T11:14:12.738Z,1003.49
2023-03-11T11:15:12.659Z,1003.53
2023-03-11T11:16:12.450Z,1003.54
2023-03-11T11:17:12.395Z,1003.58
2023-03-11T11:18:12.949Z,1003.53
2023-03-11T11:19:12.327Z,1003.49
2023-03-11T11:20:12.318Z,1003.53
2023-03-11T11:21:12.355Z,1003.55
2023-03-11T11:22:12.221Z,1003.57
2023-03-11T11:23:12.195Z,1003.52
2023-03-11T11:24:12.143Z,1003.54
2023-03-11T11:25:12.132Z,1003.58
2023-03-11T11:26:12.085Z,1003.57
2023-03-11T11:27:12.106Z,1003.60
2023-03-11T11:28:12.148Z,1003.59
2023-03-11T11:29:11.987Z,1003.58
2023-03-11T11:30:11.971Z,1003.60
2023-03-11T11:31:12.014Z,1003.59
2023-03-11T11:32:11.998Z,1003.61
2023-03-11T11:33:11.831Z,1003.57
2023-03-11T11:34:11.799Z,1003.61
2023-03-11T11:35:11.757Z,1003.64
2023-03-11T11:36:11.722Z,1003.62
2023-03-11T11:37:11.741Z,1003.62
2023-03-11T11:38:11.709Z,1003.60
2023-03-11T11:39:11.620Z,1003.65
2023-03-11T11:40:11.792Z,1003.66
2023-03-11T11:41:11.646Z,1003.68
2023-03-11T11:42:20.448Z,1003.68
2023-03-11T11:43:11.476Z,1003.66
2023-03-11T11:44:11.471Z,1003.69
2023-03-11T11:45:12.298Z,1003.71
2023-03-11T11:46:11.430Z,1003.76
2023-03-11T11:47:11.384Z,1003.80
2023-03-11T11:48:11.285Z,1003.73
2023-03-11T11:49:11.255Z,1003.76
2023-03-11T11:50:11.224Z,1003.82
2023-03-11T11:51:11.190Z,1003.75
2023-03-11T11:52:11.220Z,1003.84
2023-03-11T11:53:11.128Z,1003.77
2023-03-11T11:54:11.084Z,1003.75
2023-03-11T11:55:11.053Z,1003.83
2023-03-11T11:56:11.012Z,1003.79
2023-03-11T11:57:10.969Z,1003.78
2023-03-11T11:58:11.499Z,1003.79
2023-03-11T11:59:10.916Z,1003.76
2023-03-11T12:00:10.877Z,1003.89
2023-03-11T12:01:10.835Z,1003.84
2023-03-11T12:02:10.808Z,1003.84
2023-03-11T12:03:10.846Z,1003.87
2023-03-11T12:04:10.733Z,1003.77
2023-03-11T12:05:10.744Z,1003.82
2023-03-11T12:06:10.716Z,1003.81
2023-03-11T12:07:10.620Z,1003.82
2023-03-11T12:08:10.602Z,1003.81
2023-03-11T12:09:10.531Z,1003.80
2023-03-11T12:10:22.328Z,1003.87
2023-03-11T12:11:10.483Z,1003.75
2023-03-11T12:12:10.455Z,1003.84
2023-03-11T12:13:10.387Z,1003.82
2023-03-11T12:14:10.409Z,1003.84
2023-03-11T12:15:10.313Z,1003.89
2023-03-11T12:16:10.301Z,1003.94
2023-03-11T12:17:10.285Z,1003.88
2023-03-11T12:18:10.221Z,1003.90
2023-03-11T12:19:10.173Z,1003.90
2023-03-11T12:20:10.201Z,1003.96
2023-03-11T12:21:10.098Z,1004.04
2023-03-11T12:22:10.108Z,1004.04
2023-03-11T12:23:10.049Z,1003.86